sensor_id;sensor_type;location;lat;lon;timestamp;P1;durP1;ratioP1;P2;durP2;ratioP2
73100;SDS011;61288;53.446;-2.266;2024-03-02T00:01:54;10.60;;;3.58;;
73100;SDS011;61288;53.446;-2.266;2024-03-02T00:04:19;10.35;;;4.00;;
73100;SDS011;61288;53.446;-2.266;2024-03-02T00:06:45;12.40;;;4.43;;
73100;SDS011;61288;53.446;-2.266;2024-03-02T00:09:10;9.35;;;3.50;;
73100;SDS011;61288;53.446;-2.266;2024-03-02T00:11:38;14.23;;;5.63;;
73100;SDS011;61288;53.446;-2.266;2024-03-02T00:14:07;14.65;;;4.72;;
73100;SDS011;61288;53.446;-2.266;2024-03-02T00:16:33;13.60;;;4.68;;
73100;SDS011;61288;53.446;-2.266;2024-03-02T00:19:05;14.95;;;4.78;;
73100;SDS011;61288;53.446;-2.266;2024-03-02T00:21:32;12.68;;;4.22;;
73100;SDS011;61288;53.446;-2.266;2024-03-02T00:23:58;11.27;;;4.18;;
73100;SDS011;61288;53.446;-2.266;2024-03-02T00:26:25;11.43;;;4.53;;
73100;SDS011;61288;53.446;-2.266;2024-03-02T00:28:51;11.65;;;3.67;;
73100;SDS011;61288;53.446;-2.266;2024-03-02T00:31:22;11.85;;;4.05;;
73100;SDS011;61288;53.446;-2.266;2024-03-02T00:33:48;11.88;;;3.80;;
73100;SDS011;61288;53.446;-2.266;2024-03-02T00:36:15;12.35;;;3.97;;
73100;SDS011;61288;53.446;-2.266;2024-03-02T00:38:54;11.90;;;4.00;;
73100;SDS011;61288;53.446;-2.266;2024-03-02T00:41:29;10.52;;;4.13;;
73100;SDS011;61288;53.446;-2.266;2024-03-02T00:46:35;12.07;;;3.92;;
73100;SDS011;61288;53.446;-2.266;2024-03-02T00:49:02;10.60;;;3.75;;
73100;SDS011;61288;53.446;-2.266;2024-03-02T00:51:31;12.18;;;4.10;;
73100;SDS011;61288;53.446;-2.266;2024-03-02T00:53:58;12.88;;;4.57;;
73100;SDS011;61288;53.446;-2.266;2024-03-02T00:56:25;13.40;;;4.80;;
73100;SDS011;61288;53.446;-2.266;2024-03-02T00:58:51;12.13;;;4.60;;
73100;SDS011;61288;53.446;-2.266;2024-03-02T01:01:17;14.25;;;4.65;;
73100;SDS011;61288;53.446;-2.266;2024-03-02T01:03:44;12.07;;;4.90;;
73100;SDS011;61288;53.446;-2.266;2024-03-02T01:06:11;14.48;;;4.53;;
73100;SDS011;61288;53.446;-2.266;2024-03-02T01:08:36;12.30;;;4.25;;
73100;SDS011;61288;53.446;-2.266;2024-03-02T01:11:03;16.55;;;4.72;;
73100;SDS011;61288;53.446;-2.266;2024-03-02T01:13:29;12.00;;;4.65;;
73100;SDS011;61288;53.446;-2.266;2024-03-02T01:15:56;10.48;;;4.40;;
73100;SDS011;61288;53.446;-2.266;2024-03-02T01:18:24;13.73;;;4.50;;
73100;SDS011;61288;53.446;-2.266;2024-03-02T01:20:50;13.05;;;4.35;;
73100;SDS011;61288;53.446;-2.266;2024-03-02T01:25:49;13.25;;;4.75;;
73100;SDS011;61288;53.446;-2.266;2024-03-02T01:28:16;11.98;;;4.28;;
73100;SDS011;61288;53.446;-2.266;2024-03-02T01:30:42;10.68;;;4.20;;
73100;SDS011;61288;53.446;-2.266;2024-03-02T01:33:08;13.75;;;5.05;;
73100;SDS011;61288;53.446;-2.266;2024-03-02T01:35:34;12.23;;;4.50;;
73100;SDS011;61288;53.446;-2.266;2024-03-02T01:38:00;12.55;;;4.70;;
73100;SDS011;61288;53.446;-2.266;2024-03-02T01:40:26;12.85;;;4.50;;
73100;SDS011;61288;53.446;-2.266;2024-03-02T01:42:55;13.95;;;4.68;;
73100;SDS011;61288;53.446;-2.266;2024-03-02T01:45:23;14.32;;;4.60;;
73100;SDS011;61288;53.446;-2.266;2024-03-02T01:47:49;11.25;;;4.55;;
73100;SDS011;61288;53.446;-2.266;2024-03-02T01:50:14;12.60;;;4.75;;
73100;SDS011;61288;53.446;-2.266;2024-03-02T01:52:40;13.10;;;4.47;;
73100;SDS011;61288;53.446;-2.266;2024-03-02T01:55:06;14.68;;;4.80;;
73100;SDS011;61288;53.446;-2.266;2024-03-02T01:57:33;15.38;;;4.85;;
73100;SDS011;61288;53.446;-2.266;2024-03-02T02:00:00;14.30;;;4.95;;
73100;SDS011;61288;53.446;-2.266;2024-03-02T02:02:26;12.18;;;4.15;;
73100;SDS011;61288;53.446;-2.266;2024-03-02T02:04:52;12.88;;;4.82;;
73100;SDS011;61288;53.446;-2.266;2024-03-02T02:07:17;13.57;;;4.57;;
73100;SDS011;61288;53.446;-2.266;2024-03-02T02:09:43;11.57;;;4.60;;
73100;SDS011;61288;53.446;-2.266;2024-03-02T02:12:09;13.07;;;5.10;;
73100;SDS011;61288;53.446;-2.266;2024-03-02T02:14:35;11.73;;;4.63;;
73100;SDS011;61288;53.446;-2.266;2024-03-02T02:17:01;15.15;;;5.05;;
73100;SDS011;61288;53.446;-2.266;2024-03-02T02:19:26;12.65;;;4.63;;
73100;SDS011;61288;53.446;-2.266;2024-03-02T02:21:52;13.98;;;5.40;;
73100;SDS011;61288;53.446;-2.266;2024-03-02T02:24:17;15.90;;;4.82;;
73100;SDS011;61288;53.446;-2.266;2024-03-02T02:26:46;13.77;;;5.28;;
73100;SDS011;61288;53.446;-2.266;2024-03-02T02:29:11;12.13;;;5.25;;
73100;SDS011;61288;53.446;-2.266;2024-03-02T02:31:37;11.27;;;4.88;;
73100;SDS011;61288;53.446;-2.266;2024-03-02T02:34:05;15.32;;;4.72;;
73100;SDS011;61288;53.446;-2.266;2024-03-02T02:36:31;12.85;;;4.97;;
73100;SDS011;61288;53.446;-2.266;2024-03-02T02:38:58;11.40;;;4.47;;
73100;SDS011;61288;53.446;-2.266;2024-03-02T02:41:31;12.55;;;4.72;;
73100;SDS011;61288;53.446;-2.266;2024-03-02T02:43:57;15.75;;;5.57;;
73100;SDS011;61288;53.446;-2.266;2024-03-02T02:46:23;13.10;;;4.53;;
73100;SDS011;61288;53.446;-2.266;2024-03-02T02:48:48;13.93;;;4.68;;
73100;SDS011;61288;53.446;-2.266;2024-03-02T02:51:14;12.93;;;4.65;;
73100;SDS011;61288;53.446;-2.266;2024-03-02T02:53:39;16.15;;;5.22;;
73100;SDS011;61288;53.446;-2.266;2024-03-02T02:56:09;13.80;;;5.20;;
73100;SDS011;61288;53.446;-2.266;2024-03-02T02:58:34;14.18;;;4.60;;
73100;SDS011;61288;53.446;-2.266;2024-03-02T03:01:00;15.18;;;5.68;;
73100;SDS011;61288;53.446;-2.266;2024-03-02T03:03:26;13.02;;;4.93;;
73100;SDS011;61288;53.446;-2.266;2024-03-02T03:05:52;14.20;;;5.70;;
73100;SDS011;61288;53.446;-2.266;2024-03-02T03:08:17;14.43;;;4.70;;
73100;SDS011;61288;53.446;-2.266;2024-03-02T03:10:43;15.23;;;4.40;;
73100;SDS011;61288;53.446;-2.266;2024-03-02T03:13:08;14.98;;;4.72;;
73100;SDS011;61288;53.446;-2.266;2024-03-02T03:15:34;16.50;;;5.63;;
73100;SDS011;61288;53.446;-2.266;2024-03-02T03:18:02;13.80;;;5.43;;
73100;SDS011;61288;53.446;-2.266;2024-03-02T03:20:40;17.80;;;6.07;;
73100;SDS011;61288;53.446;-2.266;2024-03-02T03:23:07;14.80;;;5.60;;
73100;SDS011;61288;53.446;-2.266;2024-03-02T03:25:33;15.55;;;5.35;;
73100;SDS011;61288;53.446;-2.266;2024-03-02T03:27:59;18.27;;;5.45;;
73100;SDS011;61288;53.446;-2.266;2024-03-02T03:30:25;15.95;;;4.82;;
73100;SDS011;61288;53.446;-2.266;2024-03-02T03:32:50;14.00;;;4.82;;
73100;SDS011;61288;53.446;-2.266;2024-03-02T03:35:16;16.23;;;5.22;;
73100;SDS011;61288;53.446;-2.266;2024-03-02T03:37:43;16.95;;;5.13;;
73100;SDS011;61288;53.446;-2.266;2024-03-02T03:40:09;18.20;;;5.55;;
73100;SDS011;61288;53.446;-2.266;2024-03-02T03:42:38;15.70;;;5.28;;
73100;SDS011;61288;53.446;-2.266;2024-03-02T03:45:04;16.90;;;4.85;;
73100;SDS011;61288;53.446;-2.266;2024-03-02T03:47:31;13.80;;;5.18;;
73100;SDS011;61288;53.446;-2.266;2024-03-02T03:49:59;15.05;;;4.57;;
73100;SDS011;61288;53.446;-2.266;2024-03-02T03:52:29;19.75;;;5.00;;
73100;SDS011;61288;53.446;-2.266;2024-03-02T03:54:56;13.48;;;5.07;;
73100;SDS011;61288;53.446;-2.266;2024-03-02T03:57:22;16.83;;;5.32;;
73100;SDS011;61288;53.446;-2.266;2024-03-02T03:59:48;16.55;;;5.22;;
73100;SDS011;61288;53.446;-2.266;2024-03-02T04:02:13;14.43;;;4.93;;
73100;SDS011;61288;53.446;-2.266;2024-03-02T04:04:39;17.05;;;5.15;;
73100;SDS011;61288;53.446;-2.266;2024-03-02T04:07:04;14.40;;;5.45;;
73100;SDS011;61288;53.446;-2.266;2024-03-02T04:09:30;13.23;;;4.55;;
73100;SDS011;61288;53.446;-2.266;2024-03-02T04:11:55;15.63;;;4.68;;
73100;SDS011;61288;53.446;-2.266;2024-03-02T04:14:21;14.60;;;5.05;;
73100;SDS011;61288;53.446;-2.266;2024-03-02T04:16:46;17.92;;;4.93;;
73100;SDS011;61288;53.446;-2.266;2024-03-02T04:19:11;14.13;;;4.35;;
73100;SDS011;61288;53.446;-2.266;2024-03-02T04:21:37;15.85;;;4.60;;
73100;SDS011;61288;53.446;-2.266;2024-03-02T04:24:02;12.52;;;4.32;;
73100;SDS011;61288;53.446;-2.266;2024-03-02T04:26:28;17.40;;;5.15;;
73100;SDS011;61288;53.446;-2.266;2024-03-02T04:28:55;17.95;;;4.65;;
73100;SDS011;61288;53.446;-2.266;2024-03-02T04:31:21;15.18;;;4.93;;
73100;SDS011;61288;53.446;-2.266;2024-03-02T04:33:47;15.70;;;4.65;;
73100;SDS011;61288;53.446;-2.266;2024-03-02T04:36:12;14.00;;;4.10;;
73100;SDS011;61288;53.446;-2.266;2024-03-02T04:38:38;14.15;;;4.30;;
73100;SDS011;61288;53.446;-2.266;2024-03-02T04:41:07;15.00;;;4.43;;
73100;SDS011;61288;53.446;-2.266;2024-03-02T04:43:33;15.40;;;4.57;;
73100;SDS011;61288;53.446;-2.266;2024-03-02T04:46:05;15.90;;;4.60;;
73100;SDS011;61288;53.446;-2.266;2024-03-02T04:48:31;13.30;;;4.47;;
73100;SDS011;61288;53.446;-2.266;2024-03-02T04:50:57;11.70;;;4.32;;
73100;SDS011;61288;53.446;-2.266;2024-03-02T04:53:23;12.48;;;4.38;;
73100;SDS011;61288;53.446;-2.266;2024-03-02T04:55:48;12.07;;;4.20;;
73100;SDS011;61288;53.446;-2.266;2024-03-02T04:58:37;16.00;;;4.80;;
73100;SDS011;61288;53.446;-2.266;2024-03-02T05:01:02;15.63;;;5.28;;
73100;SDS011;61288;53.446;-2.266;2024-03-02T05:03:28;14.45;;;4.75;;
73100;SDS011;61288;53.446;-2.266;2024-03-02T05:05:53;17.33;;;5.80;;
73100;SDS011;61288;53.446;-2.266;2024-03-02T05:08:19;17.50;;;5.20;;
73100;SDS011;61288;53.446;-2.266;2024-03-02T05:10:44;13.77;;;5.55;;
73100;SDS011;61288;53.446;-2.266;2024-03-02T05:13:10;14.73;;;5.35;;
73100;SDS011;61288;53.446;-2.266;2024-03-02T05:15:36;17.58;;;6.47;;
73100;SDS011;61288;53.446;-2.266;2024-03-02T05:18:01;17.95;;;6.88;;
73100;SDS011;61288;53.446;-2.266;2024-03-02T05:20:30;18.83;;;6.95;;
73100;SDS011;61288;53.446;-2.266;2024-03-02T05:22:55;17.95;;;6.38;;
73100;SDS011;61288;53.446;-2.266;2024-03-02T05:25:21;20.17;;;6.63;;
73100;SDS011;61288;53.446;-2.266;2024-03-02T05:27:46;18.05;;;7.05;;
73100;SDS011;61288;53.446;-2.266;2024-03-02T05:30:12;19.83;;;6.43;;
73100;SDS011;61288;53.446;-2.266;2024-03-02T05:32:37;18.35;;;7.55;;
73100;SDS011;61288;53.446;-2.266;2024-03-02T05:35:03;19.75;;;6.85;;
73100;SDS011;61288;53.446;-2.266;2024-03-02T05:37:30;21.95;;;7.32;;
73100;SDS011;61288;53.446;-2.266;2024-03-02T05:39:55;20.65;;;7.57;;
73100;SDS011;61288;53.446;-2.266;2024-03-02T05:42:21;22.05;;;6.80;;
73100;SDS011;61288;53.446;-2.266;2024-03-02T05:44:47;17.60;;;6.55;;
73100;SDS011;61288;53.446;-2.266;2024-03-02T05:47:12;21.83;;;7.53;;
73100;SDS011;61288;53.446;-2.266;2024-03-02T05:49:38;17.80;;;6.75;;
73100;SDS011;61288;53.446;-2.266;2024-03-02T05:52:04;18.67;;;6.90;;
73100;SDS011;61288;53.446;-2.266;2024-03-02T05:54:29;17.83;;;6.00;;
73100;SDS011;61288;53.446;-2.266;2024-03-02T05:56:55;19.92;;;7.10;;
73100;SDS011;61288;53.446;-2.266;2024-03-02T05:59:20;18.17;;;6.22;;
73100;SDS011;61288;53.446;-2.266;2024-03-02T06:01:46;21.85;;;7.60;;
73100;SDS011;61288;53.446;-2.266;2024-03-02T06:04:12;19.65;;;6.38;;
73100;SDS011;61288;53.446;-2.266;2024-03-02T06:06:39;20.17;;;6.47;;
73100;SDS011;61288;53.446;-2.266;2024-03-02T06:09:05;18.27;;;6.63;;
73100;SDS011;61288;53.446;-2.266;2024-03-02T06:11:33;18.92;;;6.47;;
73100;SDS011;61288;53.446;-2.266;2024-03-02T06:14:02;20.05;;;6.72;;
73100;SDS011;61288;53.446;-2.266;2024-03-02T06:16:29;22.02;;;7.72;;
73100;SDS011;61288;53.446;-2.266;2024-03-02T06:18:55;20.50;;;7.07;;
73100;SDS011;61288;53.446;-2.266;2024-03-02T06:21:22;23.20;;;8.60;;
73100;SDS011;61288;53.446;-2.266;2024-03-02T06:23:52;24.95;;;7.30;;
73100;SDS011;61288;53.446;-2.266;2024-03-02T06:26:18;21.58;;;7.63;;
73100;SDS011;61288;53.446;-2.266;2024-03-02T06:28:44;22.05;;;7.88;;
73100;SDS011;61288;53.446;-2.266;2024-03-02T06:31:10;28.00;;;8.40;;
73100;SDS011;61288;53.446;-2.266;2024-03-02T06:33:35;27.33;;;9.18;;
73100;SDS011;61288;53.446;-2.266;2024-03-02T06:36:02;26.80;;;8.80;;
73100;SDS011;61288;53.446;-2.266;2024-03-02T06:38:29;29.77;;;9.70;;
73100;SDS011;61288;53.446;-2.266;2024-03-02T06:40:57;32.13;;;10.13;;
73100;SDS011;61288;53.446;-2.266;2024-03-02T06:43:23;25.77;;;9.45;;
73100;SDS011;61288;53.446;-2.266;2024-03-02T06:45:49;31.15;;;10.02;;
73100;SDS011;61288;53.446;-2.266;2024-03-02T06:48:15;27.17;;;9.80;;
73100;SDS011;61288;53.446;-2.266;2024-03-02T06:50:47;28.80;;;9.63;;
73100;SDS011;61288;53.446;-2.266;2024-03-02T06:53:13;29.58;;;9.65;;
73100;SDS011;61288;53.446;-2.266;2024-03-02T06:55:39;27.77;;;8.85;;
73100;SDS011;61288;53.446;-2.266;2024-03-02T06:58:05;28.35;;;9.77;;
73100;SDS011;61288;53.446;-2.266;2024-03-02T07:00:30;26.40;;;9.63;;
73100;SDS011;61288;53.446;-2.266;2024-03-02T07:02:55;27.60;;;8.90;;
73100;SDS011;61288;53.446;-2.266;2024-03-02T07:05:21;29.88;;;9.70;;
73100;SDS011;61288;53.446;-2.266;2024-03-02T07:07:46;29.30;;;10.25;;
73100;SDS011;61288;53.446;-2.266;2024-03-02T07:10:12;28.23;;;9.05;;
73100;SDS011;61288;53.446;-2.266;2024-03-02T07:12:37;25.92;;;9.60;;
73100;SDS011;61288;53.446;-2.266;2024-03-02T07:15:03;32.00;;;10.80;;
73100;SDS011;61288;53.446;-2.266;2024-03-02T07:17:29;29.13;;;9.55;;
73100;SDS011;61288;53.446;-2.266;2024-03-02T07:19:55;26.77;;;9.30;;
73100;SDS011;61288;53.446;-2.266;2024-03-02T07:22:22;28.17;;;10.23;;
73100;SDS011;61288;53.446;-2.266;2024-03-02T07:24:48;23.58;;;8.95;;
73100;SDS011;61288;53.446;-2.266;2024-03-02T07:27:14;28.35;;;8.98;;
73100;SDS011;61288;53.446;-2.266;2024-03-02T07:29:41;28.58;;;9.30;;
73100;SDS011;61288;53.446;-2.266;2024-03-02T07:32:07;28.02;;;9.25;;
73100;SDS011;61288;53.446;-2.266;2024-03-02T07:34:34;26.63;;;8.80;;
73100;SDS011;61288;53.446;-2.266;2024-03-02T07:37:00;26.77;;;8.80;;
73100;SDS011;61288;53.446;-2.266;2024-03-02T07:39:26;24.98;;;7.75;;
73100;SDS011;61288;53.446;-2.266;2024-03-02T07:41:52;24.13;;;7.38;;
73100;SDS011;61288;53.446;-2.266;2024-03-02T07:44:17;23.42;;;8.45;;
73100;SDS011;61288;53.446;-2.266;2024-03-02T07:46:44;25.80;;;8.73;;
73100;SDS011;61288;53.446;-2.266;2024-03-02T07:49:11;23.95;;;8.07;;
73100;SDS011;61288;53.446;-2.266;2024-03-02T07:51:42;25.85;;;8.35;;
73100;SDS011;61288;53.446;-2.266;2024-03-02T07:54:09;23.50;;;7.68;;
73100;SDS011;61288;53.446;-2.266;2024-03-02T07:56:34;23.85;;;7.93;;
73100;SDS011;61288;53.446;-2.266;2024-03-02T07:59:03;22.73;;;7.13;;
73100;SDS011;61288;53.446;-2.266;2024-03-02T08:01:29;19.55;;;7.25;;
73100;SDS011;61288;53.446;-2.266;2024-03-02T08:03:59;24.02;;;8.07;;
73100;SDS011;61288;53.446;-2.266;2024-03-02T08:06:28;24.35;;;8.60;;
73100;SDS011;61288;53.446;-2.266;2024-03-02T08:08:54;24.08;;;8.63;;
73100;SDS011;61288;53.446;-2.266;2024-03-02T08:11:21;23.40;;;7.88;;
73100;SDS011;61288;53.446;-2.266;2024-03-02T08:13:47;24.83;;;8.18;;
73100;SDS011;61288;53.446;-2.266;2024-03-02T08:16:13;24.00;;;8.25;;
73100;SDS011;61288;53.446;-2.266;2024-03-02T08:18:45;22.75;;;7.88;;
73100;SDS011;61288;53.446;-2.266;2024-03-02T08:21:12;21.90;;;7.00;;
73100;SDS011;61288;53.446;-2.266;2024-03-02T08:23:38;22.02;;;7.88;;
73100;SDS011;61288;53.446;-2.266;2024-03-02T08:26:05;24.33;;;8.50;;
73100;SDS011;61288;53.446;-2.266;2024-03-02T08:28:31;21.67;;;7.20;;
73100;SDS011;61288;53.446;-2.266;2024-03-02T08:30:57;22.55;;;7.97;;
73100;SDS011;61288;53.446;-2.266;2024-03-02T08:33:22;21.92;;;7.10;;
73100;SDS011;61288;53.446;-2.266;2024-03-02T08:35:48;22.42;;;7.30;;
73100;SDS011;61288;53.446;-2.266;2024-03-02T08:38:13;24.15;;;7.32;;
73100;SDS011;61288;53.446;-2.266;2024-03-02T08:40:39;22.38;;;8.10;;
73100;SDS011;61288;53.446;-2.266;2024-03-02T08:43:04;25.42;;;8.10;;
73100;SDS011;61288;53.446;-2.266;2024-03-02T08:45:30;24.80;;;8.25;;
73100;SDS011;61288;53.446;-2.266;2024-03-02T08:47:55;21.25;;;7.68;;
73100;SDS011;61288;53.446;-2.266;2024-03-02T08:50:21;24.23;;;8.82;;
73100;SDS011;61288;53.446;-2.266;2024-03-02T08:52:46;23.27;;;7.78;;
73100;SDS011;61288;53.446;-2.266;2024-03-02T08:55:11;22.30;;;7.47;;
73100;SDS011;61288;53.446;-2.266;2024-03-02T08:57:37;21.77;;;7.57;;
73100;SDS011;61288;53.446;-2.266;2024-03-02T09:00:03;20.23;;;7.05;;
73100;SDS011;61288;53.446;-2.266;2024-03-02T09:02:30;23.02;;;6.80;;
73100;SDS011;61288;53.446;-2.266;2024-03-02T09:04:57;21.23;;;7.00;;
73100;SDS011;61288;53.446;-2.266;2024-03-02T09:07:23;22.02;;;6.47;;
73100;SDS011;61288;53.446;-2.266;2024-03-02T09:09:48;20.60;;;6.60;;
73100;SDS011;61288;53.446;-2.266;2024-03-02T09:12:14;18.25;;;5.80;;
73100;SDS011;61288;53.446;-2.266;2024-03-02T09:14:40;18.88;;;6.68;;
73100;SDS011;61288;53.446;-2.266;2024-03-02T09:17:06;20.15;;;6.43;;
73100;SDS011;61288;53.446;-2.266;2024-03-02T09:19:31;21.45;;;7.03;;
73100;SDS011;61288;53.446;-2.266;2024-03-02T09:21:56;21.40;;;6.55;;
73100;SDS011;61288;53.446;-2.266;2024-03-02T09:24:23;21.02;;;6.15;;
73100;SDS011;61288;53.446;-2.266;2024-03-02T09:26:49;20.20;;;6.65;;
73100;SDS011;61288;53.446;-2.266;2024-03-02T09:29:15;19.42;;;6.85;;
73100;SDS011;61288;53.446;-2.266;2024-03-02T09:31:40;20.50;;;6.72;;
73100;SDS011;61288;53.446;-2.266;2024-03-02T09:34:07;18.15;;;5.85;;
73100;SDS011;61288;53.446;-2.266;2024-03-02T09:36:32;17.80;;;6.22;;
73100;SDS011;61288;53.446;-2.266;2024-03-02T09:38:58;18.90;;;5.93;;
73100;SDS011;61288;53.446;-2.266;2024-03-02T09:41:24;16.35;;;6.30;;
73100;SDS011;61288;53.446;-2.266;2024-03-02T09:43:50;18.13;;;6.18;;
73100;SDS011;61288;53.446;-2.266;2024-03-02T09:46:16;17.15;;;6.63;;
73100;SDS011;61288;53.446;-2.266;2024-03-02T09:48:45;20.42;;;6.50;;
73100;SDS011;61288;53.446;-2.266;2024-03-02T09:51:11;18.63;;;5.75;;
73100;SDS011;61288;53.446;-2.266;2024-03-02T09:53:37;19.50;;;6.00;;
73100;SDS011;61288;53.446;-2.266;2024-03-02T09:56:03;16.35;;;5.53;;
73100;SDS011;61288;53.446;-2.266;2024-03-02T09:58:29;14.68;;;5.28;;
73100;SDS011;61288;53.446;-2.266;2024-03-02T10:00:55;14.82;;;5.28;;
73100;SDS011;61288;53.446;-2.266;2024-03-02T10:03:21;17.20;;;5.78;;
73100;SDS011;61288;53.446;-2.266;2024-03-02T10:05:48;17.05;;;5.18;;
73100;SDS011;61288;53.446;-2.266;2024-03-02T10:08:13;19.05;;;5.78;;
73100;SDS011;61288;53.446;-2.266;2024-03-02T10:10:40;19.33;;;5.72;;
73100;SDS011;61288;53.446;-2.266;2024-03-02T10:13:12;16.98;;;5.60;;
73100;SDS011;61288;53.446;-2.266;2024-03-02T10:15:39;15.88;;;5.63;;
73100;SDS011;61288;53.446;-2.266;2024-03-02T10:18:12;15.50;;;5.32;;
73100;SDS011;61288;53.446;-2.266;2024-03-02T10:20:39;16.27;;;5.68;;
73100;SDS011;61288;53.446;-2.266;2024-03-02T10:23:12;14.20;;;4.40;;
73100;SDS011;61288;53.446;-2.266;2024-03-02T10:25:39;12.48;;;4.50;;
73100;SDS011;61288;53.446;-2.266;2024-03-02T10:28:05;13.55;;;4.30;;
73100;SDS011;61288;53.446;-2.266;2024-03-02T10:30:31;16.05;;;4.07;;
73100;SDS011;61288;53.446;-2.266;2024-03-02T10:32:58;16.15;;;4.10;;
73100;SDS011;61288;53.446;-2.266;2024-03-02T10:35:23;15.60;;;4.10;;
73100;SDS011;61288;53.446;-2.266;2024-03-02T10:37:49;12.75;;;4.22;;
73100;SDS011;61288;53.446;-2.266;2024-03-02T10:40:14;16.55;;;4.80;;
73100;SDS011;61288;53.446;-2.266;2024-03-02T10:42:41;12.55;;;4.30;;
73100;SDS011;61288;53.446;-2.266;2024-03-02T10:45:07;15.52;;;4.78;;
73100;SDS011;61288;53.446;-2.266;2024-03-02T10:47:36;14.57;;;5.10;;
73100;SDS011;61288;53.446;-2.266;2024-03-02T10:50:04;15.18;;;5.35;;
73100;SDS011;61288;53.446;-2.266;2024-03-02T10:52:36;21.73;;;5.57;;
73100;SDS011;61288;53.446;-2.266;2024-03-02T10:55:04;15.93;;;5.85;;
73100;SDS011;61288;53.446;-2.266;2024-03-02T10:57:36;16.75;;;5.40;;
73100;SDS011;61288;53.446;-2.266;2024-03-02T11:00:12;16.48;;;5.47;;
73100;SDS011;61288;53.446;-2.266;2024-03-02T11:02:42;18.23;;;5.93;;
73100;SDS011;61288;53.446;-2.266;2024-03-02T11:05:17;18.98;;;6.30;;
73100;SDS011;61288;53.446;-2.266;2024-03-02T11:07:52;17.45;;;6.07;;
73100;SDS011;61288;53.446;-2.266;2024-03-02T11:10:22;16.83;;;5.53;;
73100;SDS011;61288;53.446;-2.266;2024-03-02T11:13:08;16.85;;;5.65;;
73100;SDS011;61288;53.446;-2.266;2024-03-02T11:15:35;16.85;;;5.82;;
73100;SDS011;61288;53.446;-2.266;2024-03-02T11:18:03;15.40;;;5.60;;
73100;SDS011;61288;53.446;-2.266;2024-03-02T11:20:33;17.20;;;6.40;;
73100;SDS011;61288;53.446;-2.266;2024-03-02T11:23:07;18.75;;;5.20;;
73100;SDS011;61288;53.446;-2.266;2024-03-02T11:25:36;17.20;;;5.38;;
73100;SDS011;61288;53.446;-2.266;2024-03-02T11:28:04;15.55;;;5.65;;
73100;SDS011;61288;53.446;-2.266;2024-03-02T11:35:25;16.05;;;4.93;;
73100;SDS011;61288;53.446;-2.266;2024-03-02T11:37:55;16.08;;;6.00;;
73100;SDS011;61288;53.446;-2.266;2024-03-02T11:40:27;15.48;;;5.57;;
73100;SDS011;61288;53.446;-2.266;2024-03-02T11:42:54;16.25;;;5.43;;
73100;SDS011;61288;53.446;-2.266;2024-03-02T11:45:27;12.98;;;4.85;;
73100;SDS011;61288;53.446;-2.266;2024-03-02T11:47:57;13.75;;;4.82;;
73100;SDS011;61288;53.446;-2.266;2024-03-02T11:53:09;12.48;;;4.13;;
73100;SDS011;61288;53.446;-2.266;2024-03-02T11:55:39;9.80;;;3.05;;
73100;SDS011;61288;53.446;-2.266;2024-03-02T11:58:06;12.38;;;3.28;;
73100;SDS011;61288;53.446;-2.266;2024-03-02T12:00:32;11.82;;;3.30;;
73100;SDS011;61288;53.446;-2.266;2024-03-02T12:05:30;10.55;;;2.75;;
73100;SDS011;61288;53.446;-2.266;2024-03-02T12:07:57;7.80;;;2.35;;
73100;SDS011;61288;53.446;-2.266;2024-03-02T12:10:24;7.03;;;2.17;;
73100;SDS011;61288;53.446;-2.266;2024-03-02T12:13:03;5.00;;;1.73;;
73100;SDS011;61288;53.446;-2.266;2024-03-02T12:15:32;4.28;;;1.40;;
73100;SDS011;61288;53.446;-2.266;2024-03-02T12:18:00;4.03;;;1.30;;
73100;SDS011;61288;53.446;-2.266;2024-03-02T12:20:27;4.78;;;1.38;;
73100;SDS011;61288;53.446;-2.266;2024-03-02T12:22:55;2.13;;;1.20;;
73100;SDS011;61288;53.446;-2.266;2024-03-02T12:25:25;4.13;;;1.30;;
73100;SDS011;61288;53.446;-2.266;2024-03-02T12:27:55;5.18;;;1.67;;
73100;SDS011;61288;53.446;-2.266;2024-03-02T12:30:23;2.70;;;1.10;;
73100;SDS011;61288;53.446;-2.266;2024-03-02T12:32:50;14.38;;;3.20;;
73100;SDS011;61288;53.446;-2.266;2024-03-02T12:35:16;7.45;;;1.98;;
73100;SDS011;61288;53.446;-2.266;2024-03-02T12:37:49;5.85;;;1.80;;
73100;SDS011;61288;53.446;-2.266;2024-03-02T12:40:17;5.68;;;1.63;;
73100;SDS011;61288;53.446;-2.266;2024-03-02T12:42:44;7.93;;;2.03;;
73100;SDS011;61288;53.446;-2.266;2024-03-02T12:45:10;3.80;;;1.42;;
73100;SDS011;61288;53.446;-2.266;2024-03-02T12:47:37;3.85;;;1.50;;
73100;SDS011;61288;53.446;-2.266;2024-03-02T12:50:04;4.72;;;1.58;;
73100;SDS011;61288;53.446;-2.266;2024-03-02T12:52:30;3.85;;;1.38;;
73100;SDS011;61288;53.446;-2.266;2024-03-02T12:55:00;3.63;;;1.30;;
73100;SDS011;61288;53.446;-2.266;2024-03-02T12:57:28;3.33;;;1.50;;
73100;SDS011;61288;53.446;-2.266;2024-03-02T13:00:04;3.47;;;1.48;;
73100;SDS011;61288;53.446;-2.266;2024-03-02T13:02:34;4.13;;;1.60;;
73100;SDS011;61288;53.446;-2.266;2024-03-02T13:05:00;4.30;;;1.70;;
73100;SDS011;61288;53.446;-2.266;2024-03-02T13:07:27;3.97;;;1.77;;
73100;SDS011;61288;53.446;-2.266;2024-03-02T13:09:56;4.35;;;1.60;;
73100;SDS011;61288;53.446;-2.266;2024-03-02T13:12:22;6.72;;;2.05;;
73100;SDS011;61288;53.446;-2.266;2024-03-02T13:14:53;6.00;;;1.80;;
73100;SDS011;61288;53.446;-2.266;2024-03-02T13:17:20;4.75;;;1.90;;
73100;SDS011;61288;53.446;-2.266;2024-03-02T13:22:18;4.55;;;1.63;;
73100;SDS011;61288;53.446;-2.266;2024-03-02T13:24:44;3.85;;;1.80;;
73100;SDS011;61288;53.446;-2.266;2024-03-02T13:27:09;5.32;;;1.85;;
73100;SDS011;61288;53.446;-2.266;2024-03-02T13:29:34;6.95;;;2.17;;
73100;SDS011;61288;53.446;-2.266;2024-03-02T13:32:01;5.38;;;1.92;;
73100;SDS011;61288;53.446;-2.266;2024-03-02T13:34:26;9.40;;;2.22;;
73100;SDS011;61288;53.446;-2.266;2024-03-02T13:36:51;6.20;;;2.22;;
73100;SDS011;61288;53.446;-2.266;2024-03-02T13:39:17;9.50;;;2.55;;
73100;SDS011;61288;53.446;-2.266;2024-03-02T13:41:43;8.05;;;2.13;;
73100;SDS011;61288;53.446;-2.266;2024-03-02T13:44:19;3.05;;;1.50;;
73100;SDS011;61288;53.446;-2.266;2024-03-02T13:46:44;4.40;;;1.92;;
73100;SDS011;61288;53.446;-2.266;2024-03-02T13:49:11;6.03;;;1.70;;
73100;SDS011;61288;53.446;-2.266;2024-03-02T13:51:37;4.68;;;1.70;;
73100;SDS011;61288;53.446;-2.266;2024-03-02T13:54:03;2.33;;;1.23;;
73100;SDS011;61288;53.446;-2.266;2024-03-02T13:56:29;3.72;;;1.55;;
73100;SDS011;61288;53.446;-2.266;2024-03-02T13:58:55;4.18;;;1.38;;
73100;SDS011;61288;53.446;-2.266;2024-03-02T14:01:20;6.85;;;1.83;;
73100;SDS011;61288;53.446;-2.266;2024-03-02T14:03:46;5.03;;;1.90;;
73100;SDS011;61288;53.446;-2.266;2024-03-02T14:06:12;7.55;;;2.38;;
73100;SDS011;61288;53.446;-2.266;2024-03-02T14:08:38;7.07;;;2.20;;
73100;SDS011;61288;53.446;-2.266;2024-03-02T14:11:03;5.63;;;2.08;;
73100;SDS011;61288;53.446;-2.266;2024-03-02T14:13:29;6.72;;;1.90;;
73100;SDS011;61288;53.446;-2.266;2024-03-02T14:15:54;10.02;;;2.80;;
73100;SDS011;61288;53.446;-2.266;2024-03-02T14:18:20;6.10;;;2.13;;
73100;SDS011;61288;53.446;-2.266;2024-03-02T14:20:46;9.27;;;2.38;;
73100;SDS011;61288;53.446;-2.266;2024-03-02T14:23:17;8.88;;;2.70;;
73100;SDS011;61288;53.446;-2.266;2024-03-02T14:25:46;8.05;;;2.45;;
73100;SDS011;61288;53.446;-2.266;2024-03-02T14:28:12;6.90;;;2.40;;
73100;SDS011;61288;53.446;-2.266;2024-03-02T14:30:38;7.90;;;2.70;;
73100;SDS011;61288;53.446;-2.266;2024-03-02T14:33:04;9.45;;;2.33;;
73100;SDS011;61288;53.446;-2.266;2024-03-02T14:35:29;7.57;;;2.45;;
73100;SDS011;61288;53.446;-2.266;2024-03-02T14:37:55;5.63;;;2.20;;
73100;SDS011;61288;53.446;-2.266;2024-03-02T14:40:24;6.40;;;2.25;;